Back to top

Yellowstone, WY weather

Yellowstone (RAMOS), Yellowstone, WY: 1/20/2020 03:56
Visibilityunavailableclear sky
View 7-Day Forecast
Area Summary
Sky/Clouds
Weather [last 24 hours]None
Pressure30.43 in.Hg (1031 hPa)
Dew Point-9 °F (-22.8 °C)
Relative Humidity86.1 %
Last 24-Hour Precip.0.01 in. (0.254 mm)
Reading TimePrecipitation
6-hr ending 1/19@10:560.01 in. (0.254 mm)
24-hr ending 1/19@04:560.04 in. (1.016 mm)
Temperature-6 °F (-21.1 °C)blue thermometer
Reading TimeMinimum to Maximum Temperature
6-hr ending 1/19@22:561 °F to 18 °F (-17.2 °C to -7.8 °C)
6-hr ending 1/19@16:5618 °F to 25 °F (-7.8 °C to -3.9 °C)
6-hr ending 1/19@10:5610.9 °F to 19.9 °F (-11.7 °C to -6.7 °C)
6-hr ending 1/19@04:5612.9 °F to 15.1 °F (-10.6 °C to -9.4 °C)
24-hr ending 1/19@23:56-0 °F to 25 °F (-17.8 °C to -3.9 °C)
Wind0 MPH (0 KT) green arrow pointing at 0 degrees
Wind FromNorth (000 Degrees)
Twilight Begins07:18Sunshine Yesterday
Sunrise07:50N/A
Sunset17:17
Twilight Ends17:48
METARKP60 201056Z AUTO 00000KT M21/M23 A3043 RMK AO1 SLP396 T12111228
Tags: